createdAt,value
2018-09-04T00:00:11.288Z,98.20
2018-09-04T00:02:39.799Z,98.20
2018-09-04T00:05:08.257Z,98.30
2018-09-04T00:07:36.702Z,98.30
2018-09-04T00:10:06.173Z,98.40
2018-09-04T00:12:34.722Z,98.30
2018-09-04T00:15:03.203Z,98.40
2018-09-04T00:17:31.682Z,98.30
2018-09-04T00:20:00.170Z,98.30
2018-09-04T00:22:28.667Z,98.40
2018-09-04T00:24:57.112Z,98.30
2018-09-04T00:27:25.549Z,98.40
2018-09-04T00:29:53.982Z,98.40
2018-09-04T00:32:22.570Z,98.40
2018-09-04T00:34:51.018Z,98.40
2018-09-04T00:37:19.522Z,98.50
2018-09-04T00:39:48.520Z,98.50
2018-09-04T00:42:16.968Z,98.50
2018-09-04T00:44:45.454Z,98.40
2018-09-04T00:47:13.913Z,98.40
2018-09-04T00:49:42.353Z,98.40
2018-09-04T00:52:10.789Z,98.50
2018-09-04T00:54:39.342Z,98.50
2018-09-04T00:57:07.834Z,98.40
2018-09-04T00:59:36.271Z,98.50
2018-09-04T01:02:04.736Z,98.60
2018-09-04T01:04:33.314Z,98.70
2018-09-04T01:07:01.825Z,98.60
2018-09-04T01:09:30.831Z,98.50
2018-09-04T01:11:59.262Z,98.50
2018-09-04T01:14:27.837Z,98.50
2018-09-04T01:16:56.258Z,98.60
2018-09-04T01:19:24.681Z,98.60
2018-09-04T01:21:53.118Z,98.70
2018-09-04T01:24:21.679Z,98.70
2018-09-04T01:26:50.109Z,98.70
2018-09-04T01:29:18.582Z,98.60
2018-09-04T01:31:47.027Z,98.50
2018-09-04T01:34:15.549Z,98.60
2018-09-04T01:36:43.975Z,98.50
2018-09-04T01:39:12.426Z,98.50
2018-09-04T01:41:40.882Z,98.50
2018-09-04T01:44:09.437Z,98.70
2018-09-04T01:46:37.895Z,98.60
2018-09-04T01:49:06.389Z,98.60
2018-09-04T01:51:34.822Z,98.50
2018-09-04T01:54:03.332Z,98.60
2018-09-04T01:56:31.785Z,98.50
2018-09-04T01:59:00.266Z,98.50
2018-09-04T02:01:28.764Z,98.60
2018-09-04T02:03:57.279Z,98.60
2018-09-04T02:06:25.801Z,98.60
2018-09-04T02:08:54.241Z,98.70
2018-09-04T02:11:22.697Z,98.60
2018-09-04T02:13:51.226Z,98.60
2018-09-04T02:16:19.744Z,98.60
2018-09-04T02:18:48.244Z,98.60
2018-09-04T02:21:16.710Z,98.60
2018-09-04T02:23:45.196Z,98.60
2018-09-04T02:26:13.666Z,98.60
2018-09-04T02:28:42.134Z,98.40
2018-09-04T02:31:10.595Z,98.60
2018-09-04T02:33:39.150Z,98.60
2018-09-04T02:36:07.598Z,98.70
2018-09-04T02:38:36.049Z,98.70
2018-09-04T02:41:04.539Z,98.60
2018-09-04T02:43:33.044Z,98.60
2018-09-04T02:46:01.503Z,98.60
2018-09-04T02:48:30.044Z,98.50
2018-09-04T02:50:58.531Z,98.50
2018-09-04T02:53:26.986Z,98.60
2018-09-04T02:55:55.428Z,98.60
2018-09-04T02:58:23.929Z,98.50
2018-09-04T03:00:52.378Z,98.60
2018-09-04T03:03:20.934Z,98.40
2018-09-04T03:05:49.357Z,98.50
2018-09-04T03:08:17.807Z,98.50
2018-09-04T03:10:46.266Z,98.50
2018-09-04T03:13:14.781Z,98.60
2018-09-04T03:15:43.192Z,98.60
2018-09-04T03:18:11.621Z,98.60
2018-09-04T03:20:40.075Z,98.50
2018-09-04T03:23:08.741Z,98.50
2018-09-04T03:25:37.113Z,98.40
2018-09-04T03:28:05.583Z,98.50
2018-09-04T03:30:34.012Z,98.50
2018-09-04T03:33:02.530Z,98.60
2018-09-04T03:35:30.996Z,98.60
2018-09-04T03:37:59.420Z,98.60
2018-09-04T03:40:27.862Z,98.60
2018-09-04T03:42:56.486Z,98.60
2018-09-04T03:45:24.991Z,98.60
2018-09-04T03:47:53.423Z,98.60
2018-09-04T03:50:21.918Z,98.60
2018-09-04T03:52:50.455Z,98.60
2018-09-04T03:55:18.911Z,98.60
2018-09-04T03:57:47.349Z,98.70
2018-09-04T04:00:15.811Z,98.70
2018-09-04T04:02:44.374Z,98.80
2018-09-04T04:05:12.832Z,98.60
2018-09-04T04:07:41.298Z,98.60
2018-09-04T04:10:09.719Z,98.60
2018-09-04T04:12:38.240Z,98.60
2018-09-04T04:15:06.789Z,98.60
2018-09-04T04:17:35.261Z,98.70
2018-09-04T04:20:10.557Z,98.70
2018-09-04T04:22:39.090Z,98.70
2018-09-04T04:25:07.527Z,98.70
2018-09-04T04:27:36.026Z,99.00
2018-09-04T04:30:04.943Z,98.80
2018-09-04T04:32:33.461Z,98.70
2018-09-04T04:35:02.021Z,98.70
2018-09-04T04:37:30.461Z,98.70
2018-09-04T04:39:58.945Z,98.70
2018-09-04T04:42:27.458Z,98.70
2018-09-04T04:44:55.878Z,98.70
2018-09-04T04:47:29.722Z,99.00
2018-09-04T04:49:58.494Z,98.70
2018-09-04T04:52:27.253Z,98.80
2018-09-04T04:54:55.704Z,98.80
2018-09-04T04:57:24.147Z,98.70
2018-09-04T04:59:52.850Z,98.80
2018-09-04T05:02:21.375Z,98.80
2018-09-04T05:04:49.836Z,98.80
2018-09-04T05:07:18.296Z,98.80
2018-09-04T05:09:46.791Z,99.20
2018-09-04T05:12:15.286Z,98.80
2018-09-04T05:14:43.731Z,98.90
2018-09-04T05:17:12.219Z,98.90
2018-09-04T05:19:40.672Z,98.90
2018-09-04T05:22:09.123Z,98.90
2018-09-04T05:24:37.631Z,98.90
2018-09-04T05:27:06.110Z,98.90
2018-09-04T05:29:34.563Z,98.90
2018-09-04T05:32:15.714Z,98.90
2018-09-04T05:34:44.240Z,98.90
2018-09-04T05:37:12.664Z,99.00
2018-09-04T05:39:41.157Z,98.90
2018-09-04T05:42:14.870Z,98.90
2018-09-04T05:44:43.387Z,98.80
2018-09-04T05:47:11.923Z,98.90
2018-09-04T05:49:40.425Z,98.90
2018-09-04T05:52:08.947Z,98.90
2018-09-04T05:54:38.429Z,98.90
2018-09-04T05:57:07.039Z,99.00
2018-09-04T05:59:35.530Z,98.90
2018-09-04T06:02:04.035Z,98.90
2018-09-04T06:04:32.547Z,99.00
2018-09-04T06:07:00.979Z,98.90
2018-09-04T06:09:29.537Z,98.90
2018-09-04T06:11:58.006Z,98.80
2018-09-04T06:14:26.466Z,98.90
2018-09-04T06:16:54.927Z,98.90
2018-09-04T06:19:23.361Z,99.20
2018-09-04T06:21:51.811Z,98.80
2018-09-04T06:24:20.330Z,98.80
2018-09-04T06:26:48.831Z,98.80
2018-09-04T06:29:17.278Z,98.90
2018-09-04T06:31:45.747Z,98.80
2018-09-04T06:34:14.411Z,98.80
2018-09-04T06:36:42.998Z,99.10
2018-09-04T06:39:11.850Z,98.80
2018-09-04T06:41:40.339Z,98.70
2018-09-04T06:44:08.871Z,98.80
2018-09-04T06:46:37.376Z,98.80
2018-09-04T06:49:05.909Z,98.70
2018-09-04T06:51:34.371Z,98.60
2018-09-04T06:54:02.919Z,98.80
2018-09-04T06:56:31.435Z,98.70
2018-09-04T06:58:59.947Z,98.60
2018-09-04T07:01:28.393Z,98.80
2018-09-04T07:03:56.950Z,98.70
2018-09-04T07:06:25.428Z,98.70
2018-09-04T07:08:53.867Z,98.70
2018-09-04T07:11:22.337Z,98.60
2018-09-04T07:13:50.863Z,98.70
2018-09-04T07:16:19.307Z,98.60
2018-09-04T07:18:47.770Z,98.50
2018-09-04T07:21:16.191Z,98.60
2018-09-04T07:23:44.712Z,98.60
2018-09-04T07:26:13.199Z,98.60
2018-09-04T07:28:41.673Z,98.40
2018-09-04T07:31:10.154Z,98.60
2018-09-04T07:33:38.753Z,98.40
2018-09-04T07:36:07.230Z,98.40
2018-09-04T07:38:35.701Z,98.40
2018-09-04T07:41:04.192Z,98.40
2018-09-04T07:43:32.662Z,98.30
2018-09-04T07:46:01.133Z,98.40
2018-09-04T07:48:29.606Z,98.40
2018-09-04T07:50:58.075Z,98.20
2018-09-04T07:53:26.575Z,98.20
2018-09-04T07:55:55.006Z,98.20
2018-09-04T07:58:23.452Z,98.20
2018-09-04T08:00:51.959Z,98.20
2018-09-04T08:03:20.477Z,98.20
2018-09-04T08:05:48.942Z,98.10
2018-09-04T08:08:17.389Z,98.20
2018-09-04T08:10:45.880Z,98.10
2018-09-04T08:13:14.459Z,98.10
2018-09-04T08:15:42.955Z,98.20
2018-09-04T08:18:11.459Z,98.20
2018-09-04T08:20:39.979Z,98.10
2018-09-04T08:23:08.387Z,98.00
2018-09-04T08:25:36.858Z,97.90
2018-09-04T08:28:05.309Z,98.00
2018-09-04T08:30:33.762Z,98.00
2018-09-04T08:33:02.261Z,97.80
2018-09-04T08:35:30.721Z,97.80
2018-09-04T08:37:59.205Z,97.70
2018-09-04T08:40:28.498Z,97.90
2018-09-04T08:42:57.035Z,97.90
2018-09-04T08:45:25.514Z,97.90
2018-09-04T08:47:54.113Z,97.90
2018-09-04T08:50:22.544Z,97.90
2018-09-04T08:52:51.059Z,97.80
2018-09-04T08:55:19.553Z,97.70
2018-09-04T08:57:48.046Z,97.30
2018-09-04T09:00:16.510Z,97.50
2018-09-04T09:02:44.996Z,97.60
2018-09-04T09:05:13.453Z,97.50
2018-09-04T09:07:41.924Z,97.50
2018-09-04T09:10:10.512Z,97.50
2018-09-04T09:12:38.910Z,97.60
2018-09-04T09:15:07.418Z,97.80
2018-09-04T09:17:35.890Z,97.30
2018-09-04T09:20:04.334Z,97.40
2018-09-04T09:22:32.903Z,97.50
2018-09-04T09:25:01.357Z,97.40
2018-09-04T09:27:29.883Z,97.30
2018-09-04T09:29:58.376Z,97.30
2018-09-04T09:32:26.905Z,97.10
2018-09-04T09:34:55.469Z,97.00
2018-09-04T09:37:23.921Z,96.90
2018-09-04T09:39:52.381Z,96.90
2018-09-04T09:42:20.936Z,96.90
2018-09-04T09:44:49.390Z,96.80
2018-09-04T09:47:17.825Z,96.90
2018-09-04T09:49:46.285Z,96.70
2018-09-04T09:52:14.727Z,96.70
2018-09-04T09:54:43.215Z,96.80
2018-09-04T09:57:11.714Z,96.80
2018-09-04T09:59:40.211Z,96.60
2018-09-04T10:02:08.728Z,96.60
2018-09-04T10:04:37.171Z,96.60
2018-09-04T10:07:05.729Z,96.70
2018-09-04T10:09:34.234Z,96.50
2018-09-04T10:12:02.714Z,96.50
2018-09-04T10:14:31.232Z,96.30
2018-09-04T10:17:00.145Z,96.20
2018-09-04T10:19:28.658Z,96.20
2018-09-04T10:21:57.138Z,96.10
2018-09-04T10:24:25.665Z,96.20
2018-09-04T10:26:54.219Z,96.20
2018-09-04T10:29:22.731Z,96.00
2018-09-04T10:31:51.220Z,95.70
2018-09-04T10:34:19.761Z,95.40
2018-09-04T10:36:48.249Z,95.10
2018-09-04T10:39:22.046Z,94.90
2018-09-04T10:41:50.487Z,94.60
2018-09-04T10:44:19.043Z,94.70
2018-09-04T10:46:47.490Z,94.50
2018-09-04T10:49:15.957Z,93.90
2018-09-04T10:51:45.022Z,93.80
2018-09-04T10:54:13.601Z,93.70
2018-09-04T10:56:42.166Z,93.40
2018-09-04T10:59:10.636Z,93.30
2018-09-04T11:01:39.115Z,93.40
2018-09-04T11:04:07.596Z,93.20
2018-09-04T11:06:36.033Z,92.60
2018-09-04T11:09:08.773Z,92.50
2018-09-04T11:11:37.613Z,92.30
2018-09-04T11:14:06.084Z,92.20
2018-09-04T11:16:34.608Z,92.20
2018-09-04T11:19:03.053Z,92.00
2018-09-04T11:21:31.572Z,91.90
2018-09-04T11:24:00.069Z,91.80
2018-09-04T11:26:28.558Z,92.00
2018-09-04T11:29:00.047Z,92.20
2018-09-04T11:31:28.474Z,92.20
2018-09-04T11:33:56.942Z,92.00
2018-09-04T11:36:25.423Z,91.70
2018-09-04T11:38:53.875Z,91.70
2018-09-04T11:41:22.367Z,92.10
2018-09-04T11:43:50.921Z,91.90
2018-09-04T11:46:19.366Z,91.90
2018-09-04T11:48:47.797Z,91.90
2018-09-04T11:51:16.287Z,91.90
2018-09-04T11:53:44.790Z,91.80
2018-09-04T11:56:17.460Z,91.90
2018-09-04T11:58:45.935Z,91.80
2018-09-04T12:01:15.775Z,91.90
2018-09-04T12:03:44.280Z,91.70
2018-09-04T12:06:12.758Z,91.90
2018-09-04T12:08:41.224Z,92.00
2018-09-04T12:11:09.675Z,92.30
2018-09-04T12:13:38.257Z,92.40
2018-09-04T12:16:06.707Z,92.30
2018-09-04T12:18:35.151Z,92.30
2018-09-04T12:21:05.311Z,92.40
2018-09-04T12:23:33.624Z,92.50
2018-09-04T12:26:03.330Z,92.50
2018-09-04T12:28:31.798Z,92.40
2018-09-04T12:31:00.648Z,92.70
2018-09-04T12:33:29.310Z,92.90
2018-09-04T12:35:57.791Z,92.70
2018-09-04T12:38:27.906Z,92.60
2018-09-04T12:40:56.394Z,92.30
2018-09-04T12:43:24.958Z,92.10
2018-09-04T12:45:54.633Z,91.90
2018-09-04T12:48:28.490Z,91.60
2018-09-04T12:50:57.937Z,91.40
2018-09-04T12:53:27.346Z,91.20
2018-09-04T12:55:56.128Z,91.10
2018-09-04T12:58:24.613Z,90.70
2018-09-04T13:00:54.129Z,90.50
2018-09-04T13:03:24.821Z,90.20
2018-09-04T13:05:53.391Z,90.00
2018-09-04T13:08:23.311Z,89.20
2018-09-04T13:10:51.801Z,89.10
2018-09-04T13:13:20.267Z,88.60
2018-09-04T13:15:50.686Z,88.50
2018-09-04T13:18:19.214Z,88.90
2018-09-04T13:20:47.687Z,88.90
2018-09-04T13:23:16.164Z,88.50
2018-09-04T13:25:44.748Z,88.60
2018-09-04T13:28:13.283Z,88.30
2018-09-04T13:30:41.970Z,88.00
2018-09-04T13:33:10.644Z,88.60
2018-09-04T13:35:39.114Z,88.10
2018-09-04T13:38:07.826Z,87.10
2018-09-04T13:40:36.296Z,87.10
2018-09-04T13:43:04.927Z,87.10
2018-09-04T13:45:33.411Z,87.30
2018-09-04T13:48:02.012Z,87.50
2018-09-04T13:50:30.611Z,87.30
2018-09-04T13:52:59.218Z,87.50
2018-09-04T13:55:27.707Z,87.70
2018-09-04T13:57:56.205Z,87.30
2018-09-04T14:00:25.662Z,87.40
2018-09-04T14:02:54.307Z,87.30
2018-09-04T14:05:22.882Z,87.50
2018-09-04T14:07:51.365Z,87.40
2018-09-04T14:10:19.872Z,87.50
2018-09-04T14:12:48.526Z,87.50
2018-09-04T14:15:17.074Z,87.60
2018-09-04T14:17:45.599Z,87.10
2018-09-04T14:20:14.087Z,87.40
2018-09-04T14:22:43.594Z,88.20
2018-09-04T14:25:12.084Z,87.80
2018-09-04T14:27:40.550Z,87.80
2018-09-04T14:30:16.242Z,87.60
2018-09-04T14:32:37.559Z,87.50
2018-09-04T14:35:06.956Z,88.30
2018-09-04T14:37:35.458Z,88.60
2018-09-04T14:40:03.946Z,88.00
2018-09-04T14:42:32.499Z,87.20
2018-09-04T14:45:00.997Z,87.10
2018-09-04T14:47:29.469Z,87.30
2018-09-04T14:49:57.944Z,87.70
2018-09-04T14:52:26.427Z,87.70
2018-09-04T14:54:54.902Z,88.10
2018-09-04T14:57:23.369Z,87.80
2018-09-04T14:59:51.917Z,87.60
2018-09-04T15:02:20.487Z,87.30
2018-09-04T15:04:48.946Z,87.20
2018-09-04T15:07:17.439Z,87.10
2018-09-04T15:09:45.978Z,87.40
2018-09-04T15:12:14.448Z,88.70
2018-09-04T15:14:42.940Z,88.60
2018-09-04T15:17:11.386Z,86.90
2018-09-04T15:19:39.862Z,87.30
2018-09-04T15:22:08.303Z,87.40
2018-09-04T15:24:36.817Z,87.60
2018-09-04T15:27:05.286Z,87.30
2018-09-04T15:29:33.737Z,87.50
2018-09-04T15:32:02.319Z,87.60
2018-09-04T15:34:30.894Z,87.70
2018-09-04T15:36:59.469Z,88.30
2018-09-04T15:39:27.901Z,88.80
2018-09-04T15:41:56.391Z,88.80
2018-09-04T15:44:24.936Z,89.00
2018-09-04T15:46:53.424Z,89.10
2018-09-04T15:49:27.232Z,89.10
2018-09-04T15:51:55.734Z,89.00
2018-09-04T15:54:24.214Z,88.60
2018-09-04T15:56:52.778Z,88.60
2018-09-04T15:59:21.221Z,88.60
2018-09-04T16:01:49.707Z,88.00
2018-09-04T16:04:18.503Z,88.10
2018-09-04T16:06:46.967Z,88.20
2018-09-04T16:09:15.503Z,88.00
2018-09-04T16:11:44.026Z,87.40
2018-09-04T16:14:12.586Z,87.50
2018-09-04T16:16:41.161Z,87.60
2018-09-04T16:19:09.735Z,87.70
2018-09-04T16:21:38.225Z,87.70
2018-09-04T16:24:07.091Z,87.60
2018-09-04T16:26:35.533Z,87.60
2018-09-04T16:29:04.002Z,87.70
2018-09-04T16:31:32.491Z,87.70
2018-09-04T16:34:01.035Z,87.60
2018-09-04T16:36:29.551Z,87.70
2018-09-04T16:38:58.101Z,88.20
2018-09-04T16:41:26.611Z,88.10
2018-09-04T16:43:55.104Z,88.30
2018-09-04T16:46:23.602Z,88.00
2018-09-04T16:49:26.439Z,88.30
2018-09-04T16:51:56.358Z,88.10
2018-09-04T16:54:25.752Z,88.20
2018-09-04T16:56:54.279Z,88.10
2018-09-04T16:59:22.785Z,88.00
2018-09-04T17:01:51.265Z,88.10
2018-09-04T17:04:19.803Z,88.20
2018-09-04T17:06:48.321Z,88.40
2018-09-04T17:09:16.869Z,88.80
2018-09-04T17:11:45.349Z,89.00
2018-09-04T17:14:13.977Z,89.20
2018-09-04T17:16:42.522Z,89.70
2018-09-04T17:19:12.051Z,90.00
2018-09-04T17:21:40.731Z,90.10
2018-09-04T17:24:09.491Z,90.10
2018-09-04T17:26:38.123Z,90.20
2018-09-04T17:29:06.625Z,90.30
2018-09-04T17:31:35.267Z,90.80
2018-09-04T17:34:04.005Z,90.50
2018-09-04T17:36:32.804Z,90.60
2018-09-04T17:39:01.684Z,90.60
2018-09-04T17:41:31.013Z,90.80
2018-09-04T17:43:59.946Z,90.90
2018-09-04T17:46:28.799Z,91.00
2018-09-04T17:48:59.700Z,91.20
2018-09-04T17:51:28.701Z,91.40
2018-09-04T17:53:58.741Z,91.50
2018-09-04T17:56:28.252Z,91.70
2018-09-04T17:58:57.112Z,91.80
2018-09-04T18:01:26.034Z,91.90
2018-09-04T18:03:55.684Z,92.00
2018-09-04T18:06:25.482Z,92.10
2018-09-04T18:08:53.998Z,92.10
2018-09-04T18:11:22.532Z,92.30
2018-09-04T18:13:51.010Z,92.40
2018-09-04T18:16:19.461Z,92.70
2018-09-04T18:18:47.923Z,92.60
2018-09-04T18:21:16.460Z,92.70
2018-09-04T18:23:44.956Z,92.80
2018-09-04T18:26:13.434Z,92.90
2018-09-04T18:28:41.901Z,93.50
2018-09-04T18:31:10.529Z,93.20
2018-09-04T18:33:39.114Z,93.30
2018-09-04T18:36:07.585Z,93.40
2018-09-04T18:38:36.160Z,93.40
2018-09-04T18:41:04.637Z,93.60
2018-09-04T18:43:33.469Z,93.70
2018-09-04T18:46:01.958Z,93.70
2018-09-04T18:48:30.476Z,93.70
2018-09-04T18:50:58.966Z,93.90
2018-09-04T18:53:27.531Z,93.90
2018-09-04T18:55:55.989Z,94.00
2018-09-04T18:58:24.443Z,94.00
2018-09-04T19:00:52.891Z,94.10
2018-09-04T19:03:21.343Z,94.10
2018-09-04T19:05:49.803Z,94.20
2018-09-04T19:08:18.270Z,94.20
2018-09-04T19:10:46.722Z,94.30
2018-09-04T19:13:15.161Z,94.30
2018-09-04T19:15:44.377Z,94.30
2018-09-04T19:18:12.837Z,94.30
2018-09-04T19:20:41.333Z,94.30
2018-09-04T19:23:09.869Z,94.40
2018-09-04T19:25:38.365Z,94.40
2018-09-04T19:28:06.815Z,94.30
2018-09-04T19:30:35.278Z,94.40
2018-09-04T19:33:03.764Z,94.40
2018-09-04T19:35:32.220Z,94.40
2018-09-04T19:38:00.945Z,94.40
2018-09-04T19:40:29.420Z,94.40
2018-09-04T19:42:58.866Z,94.40
2018-09-04T19:45:27.335Z,94.40
2018-09-04T19:47:55.821Z,94.40
2018-09-04T19:50:24.322Z,94.80
2018-09-04T19:52:52.833Z,94.60
2018-09-04T19:55:21.412Z,94.60
2018-09-04T19:57:49.866Z,94.70
2018-09-04T20:00:18.317Z,94.70
2018-09-04T20:02:46.867Z,94.80
2018-09-04T20:05:15.328Z,94.90
2018-09-04T20:07:43.821Z,95.00
2018-09-04T20:10:12.571Z,94.90
2018-09-04T20:12:41.071Z,95.10
2018-09-04T20:15:09.598Z,95.10
2018-09-04T20:17:38.042Z,95.10
2018-09-04T20:20:06.637Z,95.20
2018-09-04T20:22:35.126Z,95.30
2018-09-04T20:25:03.688Z,95.60
2018-09-04T20:27:32.149Z,95.30
2018-09-04T20:30:00.581Z,95.50
2018-09-04T20:32:29.119Z,95.50
2018-09-04T20:34:57.542Z,95.60
2018-09-04T20:37:26.835Z,95.50
2018-09-04T20:39:55.306Z,95.60
2018-09-04T20:42:23.803Z,95.90
2018-09-04T20:44:52.511Z,95.70
2018-09-04T20:47:21.447Z,95.70
2018-09-04T20:49:49.977Z,95.80
2018-09-04T20:52:18.503Z,95.80
2018-09-04T20:54:47.366Z,95.70
2018-09-04T20:57:22.199Z,95.80
2018-09-04T21:00:03.741Z,95.90
2018-09-04T21:02:44.452Z,95.80
2018-09-04T21:05:24.467Z,95.90
2018-09-04T21:08:09.546Z,95.90
2018-09-04T21:10:38.795Z,96.30
2018-09-04T21:13:07.679Z,96.00
2018-09-04T21:15:36.234Z,95.90
2018-09-04T21:18:05.017Z,95.90
2018-09-04T21:20:33.736Z,95.90
2018-09-04T21:23:03.369Z,95.90
2018-09-04T21:25:31.897Z,95.90
2018-09-04T21:28:00.379Z,95.90
2018-09-04T21:30:28.993Z,95.90
2018-09-04T21:32:57.629Z,95.90
2018-09-04T21:35:26.270Z,95.90
2018-09-04T21:37:54.743Z,96.30
2018-09-04T21:40:23.213Z,95.80
2018-09-04T21:42:51.659Z,95.90
2018-09-04T21:45:20.110Z,95.80
2018-09-04T21:47:48.594Z,95.80
2018-09-04T21:50:17.010Z,95.80
2018-09-04T21:52:45.497Z,95.80
2018-09-04T21:55:15.097Z,95.70
2018-09-04T21:57:43.550Z,95.70
2018-09-04T22:00:12.083Z,96.10
2018-09-04T22:02:40.518Z,95.80
2018-09-04T22:05:08.983Z,95.70
2018-09-04T22:07:37.422Z,95.60
2018-09-04T22:10:05.877Z,95.60
2018-09-04T22:12:34.353Z,95.70
2018-09-04T22:15:02.791Z,95.70
2018-09-04T22:17:31.237Z,95.80
2018-09-04T22:19:59.709Z,96.10
2018-09-04T22:22:28.219Z,95.90
2018-09-04T22:24:56.653Z,95.90
2018-09-04T22:27:25.161Z,95.90
2018-09-04T22:29:53.600Z,95.90
2018-09-04T22:32:23.148Z,95.90
2018-09-04T22:34:51.585Z,95.90
2018-09-04T22:37:20.034Z,96.10
2018-09-04T22:39:48.501Z,95.90
2018-09-04T22:42:16.951Z,95.90
2018-09-04T22:44:45.431Z,95.90
2018-09-04T22:47:13.961Z,95.90
2018-09-04T22:49:47.653Z,95.90
2018-09-04T22:52:16.110Z,95.80
2018-09-04T22:54:44.578Z,95.90
2018-09-04T22:57:13.010Z,95.90
2018-09-04T22:59:41.500Z,95.90
2018-09-04T23:02:09.985Z,95.90
2018-09-04T23:04:38.451Z,95.80
2018-09-04T23:07:06.978Z,95.90
2018-09-04T23:09:35.390Z,96.10
2018-09-04T23:12:03.842Z,95.80
2018-09-04T23:14:32.390Z,95.80
2018-09-04T23:17:00.861Z,95.80
2018-09-04T23:19:29.306Z,95.90
2018-09-04T23:21:57.763Z,95.90
2018-09-04T23:24:26.261Z,95.90
2018-09-04T23:26:54.703Z,96.00
2018-09-04T23:29:23.123Z,96.00
2018-09-04T23:31:51.561Z,96.10
2018-09-04T23:34:19.987Z,96.20
2018-09-04T23:36:48.468Z,96.30
2018-09-04T23:39:16.929Z,96.40
2018-09-04T23:41:45.484Z,96.50
2018-09-04T23:44:13.992Z,96.50
2018-09-04T23:46:42.415Z,96.60
2018-09-04T23:49:10.876Z,96.60
2018-09-04T23:51:39.338Z,96.60
2018-09-04T23:54:07.855Z,96.70
2018-09-04T23:56:36.301Z,96.80
2018-09-04T23:59:04.854Z,96.70
